Time,TemperatureF,DewpointF,PressureIn,WindDirection,WindDirectionDegrees,WindSpeedMPH,WindSpeedGustMPH,Humidity,HourlyPrecipIn,Conditions,Clouds,dailyrainin,SoftwareType,DateUTC
2013-04-11 00:00:00,62.4,62.4,30.08,SW,236,9.0,12.0,100,0.00,,---,0.00,VWS V14.00,2013-04-11 04:00:00,
2013-04-11 00:05:00,62.3,62.3,30.07,SW,235,8.0,11.0,100,0.00,,---,0.00,VWS V14.00,2013-04-11 04:05:00,
2013-04-11 00:10:00,62.3,62.3,30.08,SW,229,9.0,12.0,100,0.00,,---,0.00,VWS V14.00,2013-04-11 04:10:00,
2013-04-11 00:15:00,62.3,62.3,30.08,WSW,237,9.0,13.0,100,0.00,,---,0.00,VWS V14.00,2013-04-11 04:15:00,
2013-04-11 00:20:00,62.3,62.3,30.08,WSW,237,9.0,13.0,100,0.00,,---,0.00,VWS V14.00,2013-04-11 04:20:00,
2013-04-11 00:25:00,62.2,62.2,30.08,SW,236,10.0,13.0,100,0.00,,---,0.00,VWS V14.00,2013-04-11 04:25:00,
2013-04-11 00:30:00,62.1,62.1,30.08,SW,233,6.0,10.0,100,0.00,,---,0.00,VWS V14.00,2013-04-11 04:30:00,
2013-04-11 00:35:00,62.0,62.0,30.08,SW,232,8.0,11.0,100,0.00,,---,0.00,VWS V14.00,2013-04-11 04:35:00,
2013-04-11 00:40:00,61.9,61.9,30.07,SW,234,7.0,11.0,100,0.00,,---,0.00,VWS V14.00,2013-04-11 04:40:00,
2013-04-11 00:45:00,61.9,61.9,30.07,SW,227,8.0,11.0,100,0.00,,---,0.00,VWS V14.00,2013-04-11 04:45:00,
2013-04-11 00:50:00,61.9,61.9,30.07,SW,228,8.0,11.0,100,0.00,,---,0.00,VWS V14.00,2013-04-11 04:50:00,
2013-04-11 00:55:00,61.8,61.8,30.07,SW,224,6.0,11.0,100,0.00,,---,0.00,VWS V14.00,2013-04-11 04:55:00,
2013-04-11 01:00:00,61.8,61.8,30.07,SW,226,11.0,11.0,100,0.00,,---,0.00,VWS V14.00,2013-04-11 05:00:00,
2013-04-11 01:05:00,61.8,61.8,30.07,SW,218,8.0,12.0,100,0.00,,---,0.00,VWS V14.00,2013-04-11 05:05:00,
2013-04-11 01:10:00,61.8,61.8,30.07,SW,223,10.0,14.0,100,0.00,,---,0.00,VWS V14.00,2013-04-11 05:10:00,
2013-04-11 01:15:00,61.9,61.9,30.07,SW,232,9.0,14.0,100,0.00,,---,0.00,VWS V14.00,2013-04-11 05:15:00,
2013-04-11 01:20:00,61.9,61.9,30.07,SW,232,9.0,14.0,100,0.00,,---,0.00,VWS V14.00,2013-04-11 05:20:00,
2013-04-11 01:25:00,61.9,61.9,30.07,SW,233,9.0,14.0,100,0.00,,---,0.00,VWS V14.00,2013-04-11 05:25:00,
2013-04-11 01:30:00,61.9,61.9,30.07,SW,235,8.0,8.0,100,0.00,,---,0.00,VWS V14.00,2013-04-11 05:30:00,
2013-04-11 01:35:00,61.9,61.9,30.07,WSW,239,11.0,11.0,100,0.00,,---,0.00,VWS V14.00,2013-04-11 05:35:00,
2013-04-11 01:40:00,61.8,61.8,30.06,SW,233,9.0,12.0,100,0.00,,---,0.00,VWS V14.00,2013-04-11 05:40:00,
2013-04-11 01:45:00,61.8,61.8,30.06,SW,236,8.0,12.0,100,0.00,,---,0.00,VWS V14.00,2013-04-11 05:45:00,
2013-04-11 01:50:00,61.7,61.7,30.06,SW,233,7.0,12.0,100,0.00,,---,0.00,VWS V14.00,2013-04-11 05:50:00,
2013-04-11 01:55:00,61.7,61.7,30.06,WSW,242,7.0,12.0,100,0.00,,---,0.00,VWS V14.00,2013-04-11 05:55:00,
2013-04-11 02:00:00,61.7,61.7,30.06,WSW,242,6.0,12.0,100,0.00,,---,0.00,VWS V14.00,2013-04-11 06:00:00,
2013-04-11 02:05:00,61.6,61.6,30.05,WSW,237,8.0,11.0,100,0.00,,---,0.00,VWS V14.00,2013-04-11 06:05:00,
2013-04-11 02:10:00,61.6,61.6,30.05,WSW,239,6.0,11.0,100,0.00,,---,0.00,VWS V14.00,2013-04-11 06:10:00,
2013-04-11 02:15:00,61.8,61.8,30.05,WSW,238,5.0,14.0,100,0.00,,---,0.00,VWS V14.00,2013-04-11 06:15:00,
2013-04-11 02:20:00,61.8,61.8,30.05,WSW,242,9.0,14.0,100,0.00,,---,0.00,VWS V14.00,2013-04-11 06:20:00,
2013-04-11 02:25:00,61.9,61.9,30.05,SW,235,12.0,14.0,100,0.00,,---,0.00,VWS V14.00,2013-04-11 06:25:00,
2013-04-11 02:30:00,62.0,62.0,30.05,WSW,240,8.0,10.0,100,0.00,,---,0.00,VWS V14.00,2013-04-11 06:30:00,
2013-04-11 02:35:00,62.1,62.1,30.05,WSW,239,8.0,12.0,100,0.00,,---,0.00,VWS V14.00,2013-04-11 06:35:00,
2013-04-11 02:40:00,62.1,62.1,30.05,SW,226,10.0,13.0,100,0.00,,---,0.00,VWS V14.00,2013-04-11 06:40:00,
2013-04-11 02:45:00,62.1,62.1,30.05,SW,227,11.0,13.0,100,0.00,,---,0.00,VWS V14.00,2013-04-11 06:45:00,
2013-04-11 02:50:00,62.2,62.2,30.05,SW,234,10.0,13.0,100,0.00,,---,0.00,VWS V14.00,2013-04-11 06:50:00,
2013-04-11 02:55:00,62.2,62.2,30.05,WSW,239,8.0,15.0,100,0.00,,---,0.00,VWS V14.00,2013-04-11 06:55:00,
2013-04-11 03:00:00,62.2,62.2,30.05,SW,236,8.0,10.0,100,0.00,,---,0.00,VWS V14.00,2013-04-11 07:00:00,
2013-04-11 03:05:00,62.2,62.2,30.05,SW,234,7.0,14.0,100,0.00,,---,0.00,VWS V14.00,2013-04-11 07:05:00,
2013-04-11 03:10:00,62.2,62.2,30.05,SW,233,8.0,14.0,100,0.00,,---,0.00,VWS V14.00,2013-04-11 07:10:00,
2013-04-11 03:15:00,62.2,62.2,30.05,SW,233,8.0,14.0,100,0.00,,---,0.00,VWS V14.00,2013-04-11 07:15:00,
2013-04-11 03:20:00,62.2,62.2,30.05,WSW,245,10.0,14.0,100,0.00,,---,0.00,VWS V14.00,2013-04-11 07:20:00,
2013-04-11 03:25:00,62.1,62.1,30.05,WSW,240,8.0,14.0,100,0.00,,---,0.00,VWS V14.00,2013-04-11 07:25:00,
2013-04-11 03:30:00,62.1,62.1,30.05,WSW,251,6.0,14.0,100,0.00,,---,0.00,VWS V14.00,2013-04-11 07:30:00,
2013-04-11 03:35:00,62.1,62.1,30.04,WSW,250,7.0,12.0,100,0.00,,---,0.00,VWS V14.00,2013-04-11 07:35:00,
2013-04-11 03:40:00,62.2,62.2,30.05,WSW,243,6.0,12.0,100,0.00,,---,0.00,VWS V14.00,2013-04-11 07:40:00,
2013-04-11 03:45:00,62.3,62.3,30.05,WSW,243,12.0,12.0,100,0.00,,---,0.00,VWS V14.00,2013-04-11 07:45:00,
2013-04-11 03:50:00,62.3,62.3,30.05,WSW,240,6.0,12.0,100,0.00,,---,0.00,VWS V14.00,2013-04-11 07:50:00,
2013-04-11 03:55:00,62.3,62.3,30.05,WSW,243,7.0,12.0,100,0.00,,---,0.00,VWS V14.00,2013-04-11 07:55:00,
2013-04-11 04:00:00,62.2,62.2,30.04,SW,235,7.0,12.0,100,0.00,,---,0.00,VWS V14.00,2013-04-11 08:00:00,
2013-04-11 04:05:00,62.1,62.1,30.04,WSW,244,8.0,13.0,100,0.00,,---,0.00,VWS V14.00,2013-04-11 08:05:00,
2013-04-11 04:10:00,62.1,62.1,30.04,SW,234,8.0,13.0,100,0.00,,---,0.00,VWS V14.00,2013-04-11 08:10:00,
2013-04-11 04:15:00,62.1,62.1,30.04,WSW,240,9.0,13.0,100,0.00,,---,0.00,VWS V14.00,2013-04-11 08:15:00,
2013-04-11 04:20:00,62.0,62.0,30.04,SW,222,8.0,13.0,100,0.00,,---,0.00,VWS V14.00,2013-04-11 08:20:00,
2013-04-11 04:25:00,62.0,62.0,30.04,SW,234,8.0,13.0,100,0.00,,---,0.00,VWS V14.00,2013-04-11 08:25:00,
2013-04-11 04:30:00,62.0,62.0,30.04,SW,227,11.0,13.0,100,0.00,,---,0.00,VWS V14.00,2013-04-11 08:30:00,
2013-04-11 04:35:00,62.0,62.0,30.03,SW,226,8.0,11.0,100,0.00,,---,0.00,VWS V14.00,2013-04-11 08:35:00,
2013-04-11 04:40:00,61.9,61.9,30.04,SW,235,7.0,11.0,100,0.00,,---,0.00,VWS V14.00,2013-04-11 08:40:00,
2013-04-11 04:45:00,61.9,61.9,30.04,SW,236,7.0,11.0,100,0.00,,---,0.00,VWS V14.00,2013-04-11 08:45:00,
2013-04-11 04:50:00,61.9,61.9,30.04,WSW,237,8.0,11.0,100,0.00,,---,0.00,VWS V14.00,2013-04-11 08:50:00,
2013-04-11 04:55:00,61.9,61.9,30.04,WSW,239,5.0,11.0,100,0.00,,---,0.00,VWS V14.00,2013-04-11 08:55:00,
2013-04-11 05:00:00,61.9,61.9,30.05,WSW,246,8.0,11.0,100,0.00,,---,0.00,VWS V14.00,2013-04-11 09:00:00,
2013-04-11 05:05:00,62.0,62.0,30.05,WSW,247,9.0,10.0,100,0.00,,---,0.00,VWS V14.00,2013-04-11 09:05:00,
2013-04-11 05:10:00,62.0,62.0,30.04,WSW,237,9.0,10.0,100,0.00,,---,0.00,VWS V14.00,2013-04-11 09:10:00,
2013-04-11 05:15:00,62.1,62.1,30.04,WSW,243,6.0,11.0,100,0.00,,---,0.00,VWS V14.00,2013-04-11 09:15:00,
2013-04-11 05:20:00,62.1,62.1,30.05,WSW,238,8.0,11.0,100,0.00,,---,0.00,VWS V14.00,2013-04-11 09:20:00,
2013-04-11 05:25:00,62.1,62.1,30.05,SW,234,7.0,11.0,100,0.00,,---,0.00,VWS V14.00,2013-04-11 09:25:00,
2013-04-11 05:30:00,62.1,62.1,30.05,WSW,248,6.0,11.0,100,0.00,,---,0.00,VWS V14.00,2013-04-11 09:30:00,
2013-04-11 05:35:00,62.1,62.1,30.05,SW,233,7.0,9.0,100,0.00,,---,0.00,VWS V14.00,2013-04-11 09:35:00,
2013-04-11 05:40:00,61.9,61.9,30.05,WSW,248,7.0,9.0,100,0.00,,---,0.00,VWS V14.00,2013-04-11 09:40:00,
2013-04-11 05:45:00,61.9,61.9,30.05,WSW,237,6.0,10.0,100,0.00,,---,0.00,VWS V14.00,2013-04-11 09:45:00,
2013-04-11 05:50:00,61.8,61.8,30.05,WSW,237,6.0,10.0,100,0.00,,---,0.00,VWS V14.00,2013-04-11 09:50:00,
2013-04-11 05:55:00,61.7,61.7,30.05,WSW,240,7.0,10.0,100,0.00,,---,0.00,VWS V14.00,2013-04-11 09:55:00,
2013-04-11 06:00:00,61.6,61.6,30.06,WSW,239,8.0,10.0,100,0.00,,---,0.00,VWS V14.00,2013-04-11 10:00:00,
2013-04-11 06:05:00,61.6,61.6,30.06,SW,236,9.0,10.0,100,0.00,,---,0.00,VWS V14.00,2013-04-11 10:05:00,
2013-04-11 06:10:00,61.5,61.5,30.06,WSW,244,7.0,10.0,100,0.00,,---,0.00,VWS V14.00,2013-04-11 10:10:00,
2013-04-11 06:15:00,61.4,61.4,30.06,WSW,239,7.0,10.0,100,0.00,,---,0.00,VWS V14.00,2013-04-11 10:15:00,
2013-04-11 06:20:00,61.4,61.4,30.06,SW,235,6.0,10.0,100,0.00,,---,0.00,VWS V14.00,2013-04-11 10:20:00,
2013-04-11 06:25:00,61.4,61.4,30.06,SW,236,7.0,10.0,100,0.00,,---,0.00,VWS V14.00,2013-04-11 10:25:00,
2013-04-11 06:30:00,61.4,61.4,30.06,SW,233,8.0,10.0,100,0.00,,---,0.00,VWS V14.00,2013-04-11 10:30:00,
2013-04-11 06:35:00,61.4,61.4,30.06,WSW,242,8.0,10.0,100,0.00,,---,0.00,VWS V14.00,2013-04-11 10:35:00,
2013-04-11 06:40:00,61.4,61.4,30.06,SW,236,9.0,15.0,100,0.00,,---,0.00,VWS V14.00,2013-04-11 10:40:00,
2013-04-11 06:45:00,61.3,61.3,30.06,WSW,239,8.0,15.0,100,0.00,,---,0.00,VWS V14.00,2013-04-11 10:45:00,
2013-04-11 06:50:00,61.2,61.2,30.06,SW,233,7.0,15.0,100,0.00,,---,0.00,VWS V14.00,2013-04-11 10:50:00,
2013-04-11 06:55:00,61.2,61.2,30.06,WSW,241,6.0,15.0,100,0.00,,---,0.00,VWS V14.00,2013-04-11 10:55:00,
2013-04-11 07:00:00,61.2,61.2,30.06,WSW,240,6.0,15.0,100,0.00,,---,0.00,VWS V14.00,2013-04-11 11:00:00,
2013-04-11 07:05:00,61.3,61.3,30.06,SW,231,7.0,9.0,100,0.00,,---,0.00,VWS V14.00,2013-04-11 11:05:00,
2013-04-11 07:10:00,61.4,61.4,30.06,SW,233,8.0,9.0,100,0.00,,---,0.00,VWS V14.00,2013-04-11 11:10:00,
2013-04-11 07:15:00,61.5,61.5,30.06,SW,226,8.0,10.0,100,0.00,,---,0.00,VWS V14.00,2013-04-11 11:15:00,
2013-04-11 07:20:00,61.5,61.5,30.06,WSW,238,8.0,10.0,100,0.00,,---,0.00,VWS V14.00,2013-04-11 11:20:00,
2013-04-11 07:25:00,61.5,61.5,30.06,SW,231,6.0,11.0,100,0.00,,---,0.00,VWS V14.00,2013-04-11 11:25:00,
2013-04-11 07:30:00,61.6,61.6,30.07,SW,224,9.0,9.0,100,0.00,,---,0.00,VWS V14.00,2013-04-11 11:30:00,
2013-04-11 07:35:00,61.7,61.7,30.07,SW,234,6.0,9.0,100,0.00,,---,0.00,VWS V14.00,2013-04-11 11:35:00,
2013-04-11 07:40:00,61.7,61.7,30.07,SW,227,6.0,9.0,100,0.00,,---,0.00,VWS V14.00,2013-04-11 11:40:00,
2013-04-11 07:45:00,61.8,61.8,30.07,SW,235,7.0,9.0,100,0.00,,---,0.00,VWS V14.00,2013-04-11 11:45:00,
2013-04-11 07:50:00,62.0,62.0,30.08,SW,232,7.0,10.0,100,0.00,,---,0.00,VWS V14.00,2013-04-11 11:50:00,
2013-04-11 07:55:00,62.1,62.1,30.07,SW,230,8.0,10.0,100,0.00,,---,0.00,VWS V14.00,2013-04-11 11:55:00,
2013-04-11 08:00:00,62.3,62.3,30.07,WSW,239,7.0,7.0,100,0.00,,---,0.00,VWS V14.00,2013-04-11 12:00:00,
2013-04-11 08:05:00,62.6,62.6,30.07,SW,234,8.0,11.0,100,0.00,,---,0.00,VWS V14.00,2013-04-11 12:05:00,
2013-04-11 08:10:00,62.9,62.9,30.07,SW,228,8.0,12.0,100,0.00,,---,0.00,VWS V14.00,2013-04-11 12:10:00,
2013-04-11 08:15:00,63.0,63.0,30.08,WSW,238,10.0,12.0,100,0.00,,---,0.00,VWS V14.00,2013-04-11 12:15:00,
2013-04-11 08:20:00,63.1,63.1,30.08,SW,234,8.0,12.0,100,0.00,,---,0.00,VWS V14.00,2013-04-11 12:20:00,
2013-04-11 08:25:00,63.4,63.4,30.08,SW,228,7.0,12.0,100,0.00,,---,0.00,VWS V14.00,2013-04-11 12:25:00,
2013-04-11 08:30:00,63.5,63.5,30.08,WSW,239,9.0,9.0,100,0.00,,---,0.00,VWS V14.00,2013-04-11 12:30:00,
2013-04-11 08:35:00,63.6,63.6,30.08,WSW,244,9.0,11.0,100,0.00,,---,0.00,VWS V14.00,2013-04-11 12:35:00,
2013-04-11 08:40:00,63.8,63.8,30.08,WSW,244,8.0,11.0,100,0.00,,---,0.00,VWS V14.00,2013-04-11 12:40:00,
2013-04-11 08:45:00,64.0,64.0,30.08,WSW,244,10.0,11.0,100,0.00,,---,0.00,VWS V14.00,2013-04-11 12:45:00,
2013-04-11 08:50:00,64.2,64.2,30.08,WSW,250,8.0,12.0,100,0.00,,---,0.00,VWS V14.00,2013-04-11 12:50:00,
2013-04-11 08:55:00,64.5,64.5,30.08,SW,233,8.0,12.0,100,0.00,,---,0.00,VWS V14.00,2013-04-11 12:55:00,
2013-04-11 09:00:00,64.6,64.6,30.08,SW,228,10.0,10.0,100,0.00,,---,0.00,VWS V14.00,2013-04-11 13:00:00,
2013-04-11 09:05:00,64.7,64.7,30.08,WSW,239,8.0,10.0,100,0.00,,---,0.00,VWS V14.00,2013-04-11 13:05:00,
2013-04-11 09:10:00,64.7,64.7,30.08,WSW,249,8.0,11.0,100,0.00,,---,0.00,VWS V14.00,2013-04-11 13:10:00,
2013-04-11 09:15:00,64.9,64.9,30.08,WSW,252,7.0,11.0,100,0.00,,---,0.00,VWS V14.00,2013-04-11 13:15:00,
2013-04-11 09:20:00,65.1,65.1,30.08,WSW,253,7.0,11.0,100,0.00,,---,0.00,VWS V14.00,2013-04-11 13:20:00,
2013-04-11 09:25:00,65.3,65.3,30.09,WSW,240,11.0,12.0,100,0.00,,---,0.00,VWS V14.00,2013-04-11 13:25:00,
2013-04-11 09:30:00,65.4,65.4,30.09,WSW,245,8.0,12.0,100,0.00,,---,0.00,VWS V14.00,2013-04-11 13:30:00,
2013-04-11 09:35:00,65.5,65.5,30.09,WSW,240,6.0,12.0,100,0.00,,---,0.00,VWS V14.00,2013-04-11 13:35:00,
2013-04-11 09:40:00,65.5,65.5,30.09,WSW,238,11.0,13.0,100,0.00,,---,0.00,VWS V14.00,2013-04-11 13:40:00,
2013-04-11 09:45:00,65.6,65.6,30.09,WSW,245,11.0,13.0,100,0.00,,---,0.00,VWS V14.00,2013-04-11 13:45:00,
2013-04-11 09:50:00,65.8,65.8,30.08,WSW,245,10.0,13.0,100,0.00,,---,0.00,VWS V14.00,2013-04-11 13:50:00,
2013-04-11 09:55:00,66.0,66.0,30.09,WSW,241,8.0,13.0,100,0.00,,---,0.00,VWS V14.00,2013-04-11 13:55:00,
2013-04-11 10:00:00,66.3,66.3,30.09,WSW,246,8.0,9.0,100,0.00,,---,0.00,VWS V14.00,2013-04-11 14:00:00,
2013-04-11 10:05:00,66.5,66.5,30.08,WSW,238,7.0,12.0,100,0.00,,---,0.00,VWS V14.00,2013-04-11 14:05:00,
2013-04-11 10:10:00,66.7,66.7,30.08,WSW,247,9.0,13.0,100,0.00,,---,0.00,VWS V14.00,2013-04-11 14:10:00,
2013-04-11 10:15:00,66.8,66.8,30.08,WSW,239,9.0,13.0,100,0.00,,---,0.00,VWS V14.00,2013-04-11 14:15:00,
2013-04-11 10:20:00,66.8,66.8,30.08,SW,225,9.0,13.0,100,0.00,,---,0.00,VWS V14.00,2013-04-11 14:20:00,
2013-04-11 10:25:00,66.7,66.7,30.08,WSW,244,7.0,13.0,100,0.00,,---,0.00,VWS V14.00,2013-04-11 14:25:00,
2013-04-11 10:30:00,66.8,66.8,30.08,SSW,203,6.0,6.0,100,0.00,,---,0.00,VWS V14.00,2013-04-11 14:30:00,
2013-04-11 10:35:00,66.6,66.6,30.08,SSW,195,6.0,10.0,100,0.00,,---,0.00,VWS V14.00,2013-04-11 14:35:00,
2013-04-11 10:40:00,66.5,66.5,30.08,SSW,195,2.0,10.0,100,0.00,,---,0.00,VWS V14.00,2013-04-11 14:40:00,
2013-04-11 10:45:00,66.5,66.5,30.08,SSW,206,8.0,10.0,100,0.00,,---,0.00,VWS V14.00,2013-04-11 14:45:00,
2013-04-11 10:50:00,66.7,66.7,30.08,SW,219,4.0,10.0,100,0.00,,---,0.00,VWS V14.00,2013-04-11 14:50:00,
2013-04-11 10:55:00,67.1,67.1,30.08,SW,225,7.0,12.0,100,0.00,,---,0.00,VWS V14.00,2013-04-11 14:55:00,
2013-04-11 11:00:00,67.4,67.4,30.08,SW,219,7.0,12.0,100,0.00,,---,0.00,VWS V14.00,2013-04-11 15:00:00,
2013-04-11 11:05:00,67.7,67.7,30.08,SW,217,7.0,11.0,100,0.00,,---,0.00,VWS V14.00,2013-04-11 15:05:00,
2013-04-11 11:10:00,67.9,67.9,30.08,SW,224,8.0,12.0,100,0.00,,---,0.00,VWS V14.00,2013-04-11 15:10:00,
2013-04-11 11:15:00,68.1,68.1,30.08,SSW,210,7.0,12.0,100,0.00,,---,0.00,VWS V14.00,2013-04-11 15:15:00,
2013-04-11 11:20:00,68.2,68.2,30.08,SW,231,10.0,12.0,100,0.00,,---,0.00,VWS V14.00,2013-04-11 15:20:00,
2013-04-11 11:25:00,68.4,68.4,30.08,SW,228,9.0,12.0,100,0.00,,---,0.00,VWS V14.00,2013-04-11 15:25:00,
2013-04-11 11:30:00,68.8,68.8,30.08,WSW,250,8.0,12.0,100,0.00,,---,0.00,VWS V14.00,2013-04-11 15:30:00,
2013-04-11 11:35:00,69.0,69.0,30.07,SW,225,8.0,12.0,100,0.00,,---,0.00,VWS V14.00,2013-04-11 15:35:00,
2013-04-11 11:40:00,69.2,69.2,30.07,SW,236,8.0,12.0,100,0.00,,---,0.00,VWS V14.00,2013-04-11 15:40:00,
2013-04-11 11:45:00,69.5,69.5,30.07,SW,230,7.0,13.0,100,0.00,,---,0.00,VWS V14.00,2013-04-11 15:45:00,
2013-04-11 11:50:00,69.6,69.6,30.07,WSW,237,8.0,13.0,100,0.00,,---,0.00,VWS V14.00,2013-04-11 15:50:00,
2013-04-11 11:55:00,69.6,69.6,30.07,SW,235,9.0,13.0,100,0.00,,---,0.00,VWS V14.00,2013-04-11 15:55:00,
2013-04-11 12:00:00,69.7,69.7,30.07,SSW,211,6.0,13.0,100,0.00,,---,0.00,VWS V14.00,2013-04-11 16:00:00,
2013-04-11 12:05:00,69.7,69.7,30.06,WSW,243,8.0,9.0,100,0.00,,---,0.00,VWS V14.00,2013-04-11 16:05:00,
2013-04-11 12:10:00,70.0,70.0,30.06,SW,235,8.0,11.0,100,0.00,,---,0.00,VWS V14.00,2013-04-11 16:10:00,
2013-04-11 12:15:00,70.4,70.4,30.06,SW,231,12.0,12.0,100,0.00,,---,0.00,VWS V14.00,2013-04-11 16:15:00,
2013-04-11 12:20:00,70.6,70.6,30.05,SSW,204,6.0,12.0,100,0.00,,---,0.00,VWS V14.00,2013-04-11 16:20:00,
2013-04-11 12:25:00,70.4,70.4,30.06,SSW,195,4.0,12.0,100,0.00,,---,0.00,VWS V14.00,2013-04-11 16:25:00,
2013-04-11 12:30:00,70.3,70.3,30.05,SW,220,8.0,13.0,100,0.00,,---,0.00,VWS V14.00,2013-04-11 16:30:00,
2013-04-11 12:35:00,70.6,70.6,30.05,SW,230,9.0,15.0,100,0.00,,---,0.00,VWS V14.00,2013-04-11 16:35:00,
2013-04-11 12:40:00,70.8,70.8,30.05,SSW,199,6.0,15.0,100,0.00,,---,0.00,VWS V14.00,2013-04-11 16:40:00,
2013-04-11 12:45:00,70.9,70.9,30.05,SW,214,8.0,16.0,100,0.00,,---,0.00,VWS V14.00,2013-04-11 16:45:00,
2013-04-11 12:50:00,71.0,71.0,30.05,SSW,211,12.0,16.0,100,0.00,,---,0.00,VWS V14.00,2013-04-11 16:50:00,
2013-04-11 12:55:00,71.0,71.0,30.04,SSW,200,8.0,17.0,100,0.00,,---,0.00,VWS V14.00,2013-04-11 16:55:00,
2013-04-11 13:00:00,71.1,71.1,30.04,SSW,203,6.0,13.0,100,0.00,,---,0.00,VWS V14.00,2013-04-11 17:00:00,
2013-04-11 13:05:00,71.1,71.1,30.04,SSW,194,6.0,15.0,100,0.00,,---,0.00,VWS V14.00,2013-04-11 17:05:00,
2013-04-11 13:10:00,71.2,71.2,30.04,SSW,205,11.0,15.0,100,0.00,,---,0.00,VWS V14.00,2013-04-11 17:10:00,
2013-04-11 13:15:00,71.6,71.6,30.04,SW,218,10.0,15.0,100,0.00,,---,0.00,VWS V14.00,2013-04-11 17:15:00,
2013-04-11 13:20:00,71.9,71.9,30.04,SW,217,11.0,16.0,100,0.00,,---,0.00,VWS V14.00,2013-04-11 17:20:00,
2013-04-11 13:25:00,72.0,72.0,30.03,SSW,211,8.0,16.0,100,0.00,,---,0.00,VWS V14.00,2013-04-11 17:25:00,
2013-04-11 13:30:00,72.5,72.5,30.03,SSW,205,10.0,10.0,100,0.00,,---,0.00,VWS V14.00,2013-04-11 17:30:00,
2013-04-11 13:35:00,72.7,72.7,30.03,SW,218,15.0,17.0,100,0.00,,---,0.00,VWS V14.00,2013-04-11 17:35:00,
2013-04-11 13:40:00,72.9,72.9,30.03,SSW,205,12.0,17.0,100,0.00,,---,0.00,VWS V14.00,2013-04-11 17:40:00,
2013-04-11 13:45:00,73.2,73.2,30.03,SW,223,14.0,18.0,100,0.00,,---,0.00,VWS V14.00,2013-04-11 17:45:00,
2013-04-11 13:50:00,73.5,73.5,30.02,SSW,213,15.0,18.0,100,0.00,,---,0.00,VWS V14.00,2013-04-11 17:50:00,
2013-04-11 13:55:00,73.6,73.6,30.02,SSW,204,10.0,18.0,100,0.00,,---,0.00,VWS V14.00,2013-04-11 17:55:00,
2013-04-11 14:00:00,73.6,73.6,30.02,SSW,204,9.0,18.0,100,0.00,,---,0.00,VWS V14.00,2013-04-11 18:00:00,
2013-04-11 14:05:00,73.4,73.4,30.02,SSW,211,14.0,17.0,100,0.00,,---,0.00,VWS V14.00,2013-04-11 18:05:00,
2013-04-11 14:10:00,73.3,73.3,30.01,SSW,192,6.0,17.0,100,0.00,,---,0.00,VWS V14.00,2013-04-11 18:10:00,
2013-04-11 14:15:00,73.2,73.2,30.01,SSW,211,15.0,17.0,100,0.00,,---,0.00,VWS V14.00,2013-04-11 18:15:00,
2013-04-11 14:20:00,73.4,73.4,30.01,SSW,212,10.0,17.0,100,0.00,,---,0.00,VWS V14.00,2013-04-11 18:20:00,
2013-04-11 14:25:00,73.4,73.4,30.01,SSW,197,7.0,17.0,100,0.00,,---,0.00,VWS V14.00,2013-04-11 18:25:00,
2013-04-11 14:30:00,73.2,72.9,30.01,SSW,196,6.0,6.0,99,0.00,,---,0.00,VWS V14.00,2013-04-11 18:30:00,
2013-04-11 14:35:00,73.1,73.1,30.01,SSW,193,8.0,18.0,100,0.00,,---,0.00,VWS V14.00,2013-04-11 18:35:00,
2013-04-11 14:40:00,73.1,73.1,30.00,SSW,199,9.0,18.0,100,0.00,,---,0.00,VWS V14.00,2013-04-11 18:40:00,
2013-04-11 14:45:00,73.3,73.3,30.01,SSW,195,7.0,18.0,100,0.00,,---,0.00,VWS V14.00,2013-04-11 18:45:00,
2013-04-11 14:50:00,73.3,73.0,30.00,South,191,7.0,18.0,99,0.00,,---,0.00,VWS V14.00,2013-04-11 18:50:00,
2013-04-11 14:55:00,73.3,73.0,30.00,SSW,201,10.0,21.0,99,0.00,,---,0.00,VWS V14.00,2013-04-11 18:55:00,
2013-04-11 15:00:00,73.2,72.9,30.00,SSW,202,9.0,13.0,99,0.00,,---,0.00,VWS V14.00,2013-04-11 19:00:00,
2013-04-11 15:05:00,73.3,73.0,29.99,SSW,196,10.0,21.0,99,0.00,,---,0.00,VWS V14.00,2013-04-11 19:05:00,
2013-04-11 15:10:00,73.1,72.5,29.99,South,187,8.0,21.0,98,0.00,,---,0.00,VWS V14.00,2013-04-11 19:10:00,
2013-04-11 15:15:00,73.0,72.7,29.99,SSW,192,10.0,21.0,99,0.00,,---,0.00,VWS V14.00,2013-04-11 19:15:00,
2013-04-11 15:20:00,72.8,72.2,29.99,SSW,195,7.0,21.0,98,0.00,,---,0.00,VWS V14.00,2013-04-11 19:20:00,
2013-04-11 15:25:00,72.6,72.3,29.98,South,191,8.0,21.0,99,0.00,,---,0.00,VWS V14.00,2013-04-11 19:25:00,
2013-04-11 15:30:00,72.7,72.7,29.98,SSW,197,9.0,9.0,100,0.00,,---,0.00,VWS V14.00,2013-04-11 19:30:00,
2013-04-11 15:35:00,72.8,72.5,29.98,SSW,197,9.0,18.0,99,0.00,,---,0.00,VWS V14.00,2013-04-11 19:35:00,
2013-04-11 15:40:00,72.6,72.3,29.98,South,188,7.0,18.0,99,0.00,,---,0.00,VWS V14.00,2013-04-11 19:40:00,
2013-04-11 15:45:00,72.5,72.2,29.97,SSW,210,13.0,18.0,99,0.00,,---,0.00,VWS V14.00,2013-04-11 19:45:00,
2013-04-11 15:50:00,72.4,72.1,29.97,SSW,195,6.0,18.0,99,0.00,,---,0.00,VWS V14.00,2013-04-11 19:50:00,
2013-04-11 15:55:00,72.3,72.0,29.97,SSW,204,10.0,18.0,99,0.00,,---,0.00,VWS V14.00,2013-04-11 19:55:00,
2013-04-11 16:00:00,72.2,71.9,29.96,South,190,9.0,9.0,99,0.00,,---,0.00,VWS V14.00,2013-04-11 20:00:00,
2013-04-11 16:05:00,72.0,71.7,29.96,South,187,13.0,19.0,99,0.00,,---,0.00,VWS V14.00,2013-04-11 20:05:00,
2013-04-11 16:10:00,71.9,71.3,29.97,SSW,199,13.0,19.0,98,0.00,,---,0.00,VWS V14.00,2013-04-11 20:10:00,
2013-04-11 16:15:00,71.8,71.5,29.96,South,189,7.0,20.0,99,0.00,,---,0.00,VWS V14.00,2013-04-11 20:15:00,
2013-04-11 16:20:00,71.7,71.7,29.96,SSW,197,11.0,20.0,100,0.00,,---,0.00,VWS V14.00,2013-04-11 20:20:00,
2013-04-11 16:25:00,71.7,71.7,29.96,SSW,198,10.0,20.0,100,0.00,,---,0.00,VWS V14.00,2013-04-11 20:25:00,
2013-04-11 16:30:00,71.6,71.6,29.96,SSW,205,11.0,16.0,100,0.00,,---,0.00,VWS V14.00,2013-04-11 20:30:00,
2013-04-11 16:35:00,71.6,71.6,29.96,SSW,207,12.0,18.0,100,0.00,,---,0.00,VWS V14.00,2013-04-11 20:35:00,
2013-04-11 16:40:00,71.5,71.5,29.96,SSW,192,6.0,19.0,100,0.00,,---,0.00,VWS V14.00,2013-04-11 20:40:00,
2013-04-11 16:45:00,71.3,71.3,29.95,South,187,8.0,19.0,100,0.00,,---,0.00,VWS V14.00,2013-04-11 20:45:00,
2013-04-11 16:50:00,71.4,71.4,29.96,SSW,201,9.0,19.0,100,0.00,,---,0.00,VWS V14.00,2013-04-11 20:50:00,
2013-04-11 16:55:00,71.4,71.4,29.96,SSW,195,12.0,20.0,100,0.00,,---,0.00,VWS V14.00,2013-04-11 20:55:00,
2013-04-11 17:00:00,71.5,71.5,29.95,SW,221,19.0,21.0,100,0.00,,---,0.00,VWS V14.00,2013-04-11 21:00:00,
2013-04-11 17:05:00,71.4,71.4,29.95,SSW,206,7.0,21.0,100,0.00,,---,0.00,VWS V14.00,2013-04-11 21:05:00,
2013-04-11 17:10:00,71.3,71.3,29.95,SSW,200,7.0,21.0,100,0.00,,---,0.00,VWS V14.00,2013-04-11 21:10:00,
2013-04-11 17:15:00,71.0,71.0,29.95,SSW,196,13.0,21.0,100,0.00,,---,0.00,VWS V14.00,2013-04-11 21:15:00,
2013-04-11 17:20:00,70.8,70.8,29.95,South,191,11.0,21.0,100,0.00,,---,0.00,VWS V14.00,2013-04-11 21:20:00,
2013-04-11 17:25:00,70.5,70.5,29.95,SSW,202,8.0,21.0,100,0.00,,---,0.00,VWS V14.00,2013-04-11 21:25:00,
2013-04-11 17:30:00,70.3,70.3,29.95,SSW,201,11.0,11.0,100,0.00,,---,0.00,VWS V14.00,2013-04-11 21:30:00,
2013-04-11 17:35:00,70.1,70.1,29.95,South,189,7.0,17.0,100,0.00,,---,0.00,VWS V14.00,2013-04-11 21:35:00,
2013-04-11 17:40:00,69.8,69.8,29.95,SSW,197,6.0,17.0,100,0.00,,---,0.00,VWS V14.00,2013-04-11 21:40:00,
2013-04-11 17:45:00,69.6,69.6,29.96,SSW,199,12.0,17.0,100,0.00,,---,0.00,VWS V14.00,2013-04-11 21:45:00,
2013-04-11 17:50:00,69.3,69.3,29.96,South,188,8.0,17.0,100,0.00,,---,0.00,VWS V14.00,2013-04-11 21:50:00,
2013-04-11 17:55:00,69.2,69.2,29.96,SSW,205,9.0,17.0,100,0.00,,---,0.00,VWS V14.00,2013-04-11 21:55:00,
2013-04-11 18:00:00,69.1,69.1,29.95,SSW,199,9.0,17.0,100,0.00,,---,0.00,VWS V14.00,2013-04-11 22:00:00,
2013-04-11 18:05:00,69.0,69.0,29.95,SSW,204,12.0,15.0,100,0.00,,---,0.00,VWS V14.00,2013-04-11 22:05:00,
2013-04-11 18:10:00,68.9,68.9,29.95,SSW,197,8.0,17.0,100,0.00,,---,0.00,VWS V14.00,2013-04-11 22:10:00,
2013-04-11 18:15:00,68.8,68.8,29.95,SSW,196,10.0,17.0,100,0.00,,---,0.00,VWS V14.00,2013-04-11 22:15:00,
2013-04-11 18:20:00,68.5,68.5,29.95,SSW,197,8.0,17.0,100,0.00,,---,0.00,VWS V14.00,2013-04-11 22:20:00,
2013-04-11 18:25:00,68.3,68.3,29.94,SSW,198,6.0,17.0,100,0.00,,---,0.00,VWS V14.00,2013-04-11 22:25:00,
2013-04-11 18:30:00,68.1,68.1,29.95,SSW,196,6.0,17.0,100,0.00,,---,0.00,VWS V14.00,2013-04-11 22:30:00,
2013-04-11 18:35:00,68.0,68.0,29.95,SSW,204,8.0,14.0,100,0.00,,---,0.00,VWS V14.00,2013-04-11 22:35:00,
2013-04-11 18:40:00,67.9,67.9,29.95,SSW,203,6.0,16.0,100,0.00,,---,0.00,VWS V14.00,2013-04-11 22:40:00,
2013-04-11 18:45:00,67.8,67.8,29.95,SSW,210,11.0,17.0,100,0.00,,---,0.00,VWS V14.00,2013-04-11 22:45:00,
2013-04-11 18:50:00,67.8,67.8,29.95,SSW,207,8.0,17.0,100,0.00,,---,0.00,VWS V14.00,2013-04-11 22:50:00,
2013-04-11 18:55:00,67.8,67.8,29.95,SSW,207,7.0,17.0,100,0.00,,---,0.00,VWS V14.00,2013-04-11 22:55:00,
2013-04-11 19:00:00,67.8,67.8,29.95,SSW,212,8.0,17.0,100,0.00,,---,0.00,VWS V14.00,2013-04-11 23:00:00,
2013-04-11 19:05:00,67.8,67.8,29.95,SSW,205,7.0,16.0,100,0.00,,---,0.00,VWS V14.00,2013-04-11 23:05:00,
2013-04-11 19:10:00,67.7,67.7,29.95,SSW,195,8.0,16.0,100,0.00,,---,0.00,VWS V14.00,2013-04-11 23:10:00,
2013-04-11 19:15:00,67.6,67.6,29.95,South,191,7.0,16.0,100,0.00,,---,0.00,VWS V14.00,2013-04-11 23:15:00,
2013-04-11 19:20:00,67.6,67.6,29.95,SSW,202,6.0,17.0,100,0.00,,---,0.00,VWS V14.00,2013-04-11 23:20:00,
2013-04-11 19:25:00,67.5,67.5,29.95,SSW,208,10.0,17.0,100,0.00,,---,0.00,VWS V14.00,2013-04-11 23:25:00,
2013-04-11 19:30:00,67.4,67.4,29.95,SSW,210,12.0,18.0,100,0.00,,---,0.00,VWS V14.00,2013-04-11 23:30:00,
2013-04-11 19:35:00,67.3,67.3,29.95,SSW,206,7.0,19.0,100,0.00,,---,0.00,VWS V14.00,2013-04-11 23:35:00,
2013-04-11 19:40:00,67.3,67.3,29.95,SW,214,11.0,19.0,100,0.00,,---,0.00,VWS V14.00,2013-04-11 23:40:00,
2013-04-11 19:45:00,67.2,67.2,29.95,SSW,203,7.0,19.0,100,0.00,,---,0.00,VWS V14.00,2013-04-11 23:45:00,
2013-04-11 19:50:00,67.2,67.2,29.96,SSW,200,6.0,19.0,100,0.00,,---,0.00,VWS V14.00,2013-04-11 23:50:00,
2013-04-11 19:55:00,67.1,67.1,29.96,SSW,206,8.0,19.0,100,0.00,,---,0.00,VWS V14.00,2013-04-11 23:55:00,
2013-04-11 20:00:00,67.1,67.1,29.95,SSW,211,8.0,19.0,100,0.00,,---,0.00,VWS V14.00,2013-04-12 00:00:00,
2013-04-11 20:05:00,67.1,67.1,29.95,SSW,210,12.0,17.0,100,0.00,,---,0.00,VWS V14.00,2013-04-12 00:05:00,
2013-04-11 20:10:00,67.1,67.1,29.95,SW,215,13.0,20.0,100,0.00,,---,0.00,VWS V14.00,2013-04-12 00:10:00,
2013-04-11 20:15:00,67.1,67.1,29.95,SSW,202,8.0,20.0,100,0.00,,---,0.00,VWS V14.00,2013-04-12 00:15:00,
2013-04-11 20:20:00,66.9,66.9,29.96,SSW,210,10.0,20.0,100,0.00,,---,0.00,VWS V14.00,2013-04-12 00:20:00,
2013-04-11 20:25:00,66.9,66.9,29.95,SSW,210,11.0,20.0,100,0.00,,---,0.00,VWS V14.00,2013-04-12 00:25:00,
2013-04-11 20:30:00,66.8,66.8,29.95,SSW,207,13.0,20.0,100,0.00,,---,0.00,VWS V14.00,2013-04-12 00:30:00,
2013-04-11 20:35:00,66.7,66.7,29.95,SW,214,7.0,17.0,100,0.00,,---,0.00,VWS V14.00,2013-04-12 00:35:00,
2013-04-11 20:40:00,66.8,66.8,29.95,SSW,209,11.0,17.0,100,0.00,,---,0.00,VWS V14.00,2013-04-12 00:40:00,
2013-04-11 20:45:00,66.7,66.7,29.96,SSW,212,9.0,17.0,100,0.00,,---,0.00,VWS V14.00,2013-04-12 00:45:00,
2013-04-11 20:50:00,66.6,66.6,29.96,SSW,210,9.0,17.0,100,0.00,,---,0.00,VWS V14.00,2013-04-12 00:50:00,
2013-04-11 20:55:00,66.5,66.5,29.96,SW,217,13.0,17.0,100,0.00,,---,0.00,VWS V14.00,2013-04-12 00:55:00,
2013-04-11 21:00:00,66.5,66.5,29.96,SSW,209,10.0,17.0,100,0.00,,---,0.00,VWS V14.00,2013-04-12 01:00:00,
2013-04-11 21:05:00,66.4,66.4,29.96,SSW,208,7.0,14.0,100,0.00,,---,0.00,VWS V14.00,2013-04-12 01:05:00,
2013-04-11 21:10:00,66.3,66.3,29.97,SW,221,14.0,17.0,100,0.00,,---,0.00,VWS V14.00,2013-04-12 01:10:00,
2013-04-11 21:15:00,66.3,66.3,29.96,SW,214,8.0,17.0,100,0.00,,---,0.00,VWS V14.00,2013-04-12 01:15:00,
2013-04-11 21:20:00,66.3,66.3,29.96,SW,218,9.0,17.0,100,0.00,,---,0.00,VWS V14.00,2013-04-12 01:20:00,
2013-04-11 21:25:00,66.3,66.3,29.96,SW,219,12.0,17.0,100,0.00,,---,0.00,VWS V14.00,2013-04-12 01:25:00,
2013-04-11 21:30:00,66.3,66.3,29.97,SW,215,10.0,17.0,100,0.00,,---,0.00,VWS V14.00,2013-04-12 01:30:00,
2013-04-11 21:35:00,66.3,66.3,29.96,SW,222,11.0,16.0,100,0.00,,---,0.00,VWS V14.00,2013-04-12 01:35:00,
2013-04-11 21:40:00,66.4,66.4,29.96,SW,217,7.0,16.0,100,0.00,,---,0.00,VWS V14.00,2013-04-12 01:40:00,
2013-04-11 21:45:00,66.5,66.5,29.96,SW,222,8.0,16.0,100,0.00,,---,0.00,VWS V14.00,2013-04-12 01:45:00,
2013-04-11 21:50:00,66.6,66.6,29.96,SW,215,14.0,16.0,100,0.00,,---,0.00,VWS V14.00,2013-04-12 01:50:00,
2013-04-11 21:55:00,66.6,66.6,29.96,SW,221,13.0,19.0,100,0.00,,---,0.00,VWS V14.00,2013-04-12 01:55:00,
2013-04-11 22:00:00,66.7,66.7,29.96,SSW,209,13.0,19.0,100,0.00,,---,0.00,VWS V14.00,2013-04-12 02:00:00,
2013-04-11 22:05:00,66.7,66.7,29.96,SSW,208,12.0,15.0,100,0.00,,---,0.00,VWS V14.00,2013-04-12 02:05:00,
2013-04-11 22:10:00,66.7,66.7,29.96,SSW,206,10.0,15.0,100,0.00,,---,0.00,VWS V14.00,2013-04-12 02:10:00,
2013-04-11 22:15:00,66.6,66.6,29.96,SSW,193,7.0,15.0,100,0.00,,---,0.00,VWS V14.00,2013-04-12 02:15:00,
2013-04-11 22:20:00,66.5,66.5,29.96,SSW,193,7.0,16.0,100,0.00,,---,0.00,VWS V14.00,2013-04-12 02:20:00,
2013-04-11 22:25:00,66.3,66.3,29.96,SSW,204,11.0,16.0,100,0.00,,---,0.00,VWS V14.00,2013-04-12 02:25:00,
2013-04-11 22:30:00,66.2,66.2,29.96,SSW,201,8.0,16.0,100,0.00,,---,0.00,VWS V14.00,2013-04-12 02:30:00,
2013-04-11 22:35:00,66.1,66.1,29.96,SSW,205,12.0,15.0,100,0.00,,---,0.00,VWS V14.00,2013-04-12 02:35:00,
2013-04-11 22:40:00,66.1,66.1,29.95,SSW,202,7.0,15.0,100,0.00,,---,0.00,VWS V14.00,2013-04-12 02:40:00,
2013-04-11 22:45:00,66.2,66.2,29.95,SSW,208,9.0,16.0,100,0.00,,---,0.00,VWS V14.00,2013-04-12 02:45:00,
2013-04-11 22:50:00,66.2,66.2,29.95,SW,215,13.0,17.0,100,0.00,,---,0.00,VWS V14.00,2013-04-12 02:50:00,
2013-04-11 22:55:00,66.1,66.1,29.95,SSW,205,12.0,17.0,100,0.00,,---,0.00,VWS V14.00,2013-04-12 02:55:00,
2013-04-11 23:00:00,66.1,66.1,29.95,SSW,208,10.0,10.0,100,0.00,,---,0.00,VWS V14.00,2013-04-12 03:00:00,
2013-04-11 23:05:00,66.0,66.0,29.95,SSW,206,13.0,15.0,100,0.00,,---,0.00,VWS V14.00,2013-04-12 03:05:00,
2013-04-11 23:10:00,66.0,66.0,29.95,SSW,212,12.0,15.0,100,0.00,,---,0.00,VWS V14.00,2013-04-12 03:10:00,
2013-04-11 23:15:00,66.0,66.0,29.95,SSW,208,8.0,15.0,100,0.00,,---,0.00,VWS V14.00,2013-04-12 03:15:00,
2013-04-11 23:20:00,66.0,66.0,29.95,SSW,201,6.0,15.0,100,0.00,,---,0.00,VWS V14.00,2013-04-12 03:20:00,
2013-04-11 23:25:00,66.0,66.0,29.95,SSW,206,7.0,15.0,100,0.00,,---,0.00,VWS V14.00,2013-04-12 03:25:00,
2013-04-11 23:30:00,65.9,65.9,29.94,SSW,202,8.0,9.0,100,0.00,,---,0.00,VWS V14.00,2013-04-12 03:30:00,
2013-04-11 23:35:00,65.8,65.8,29.95,SSW,209,7.0,13.0,100,0.00,,---,0.00,VWS V14.00,2013-04-12 03:35:00,
2013-04-11 23:40:00,65.7,65.7,29.95,SSW,202,5.0,13.0,100,0.00,,---,0.00,VWS V14.00,2013-04-12 03:40:00,
2013-04-11 23:45:00,65.7,65.7,29.94,SSW,197,6.0,13.0,100,0.00,,---,0.00,VWS V14.00,2013-04-12 03:45:00,
2013-04-11 23:50:00,65.6,65.6,29.94,SSW,211,7.0,13.0,100,0.00,,---,0.00,VWS V14.00,2013-04-12 03:50:00,
2013-04-11 23:55:00,65.5,65.5,29.94,SSW,196,6.0,13.0,100,0.00,,---,0.00,VWS V14.00,2013-04-12 03:55:00,